45TA weather

Public forecast

Using degrees Fahrenheit for public forecast. Weather courtesy of forecast.io.

Closest aviation weather report (METAR) to Spl Heliport

Closest report is William P Hobby Airport, 7.9 nm (14.6 km) E. Retrieved 2020/08/09 01:53 UTC (10 minutes ago):

KHOU 090153Z 16009KT 10SM FEW015 SCT030 BKN250 31/24 A3007 RMK AO2 SLP185 T03060239

Closest aviation forecast (TAF) to Spl Heliport

Closest forecast is William P Hobby Airport, 7.9 nm (14.6 km) E. Retrieved 2020-08-09 00:42 UTC (1 hour ago):

TAF KHOU 082339Z 0900/0924 13011KT P6SM SCT040 BKN250 FM090300 VRB04KT P6SM FEW250 FM091300 20004KT P6SM SCT025 FM091500 18007KT P6SM VCSH SCT035 FM091600 VRB07KT P6SM VCTS BKN035CB OVC250 FM092000 17008KT P6SM SCT040 BKN250